sensor_id;sensor_type;location;lat;lon;timestamp;P1;durP1;ratioP1;P2;durP2;ratioP2
68763;SDS011;55754;52.038;5.566;2023-03-01T00:00:41;18.35;;;9.85;;
68763;SDS011;55754;52.038;5.566;2023-03-01T00:03:11;20.10;;;9.60;;
68763;SDS011;55754;52.038;5.566;2023-03-01T00:05:43;17.73;;;9.13;;
68763;SDS011;55754;52.038;5.566;2023-03-01T00:08:10;17.92;;;9.45;;
68763;SDS011;55754;52.038;5.566;2023-03-01T00:10:36;16.90;;;8.52;;
68763;SDS011;55754;52.038;5.566;2023-03-01T00:13:01;18.40;;;9.52;;
68763;SDS011;55754;52.038;5.566;2023-03-01T00:15:27;18.83;;;9.57;;
68763;SDS011;55754;52.038;5.566;2023-03-01T00:17:53;17.85;;;9.40;;
68763;SDS011;55754;52.038;5.566;2023-03-01T00:20:18;16.93;;;9.10;;
68763;SDS011;55754;52.038;5.566;2023-03-01T00:22:44;18.40;;;9.57;;
68763;SDS011;55754;52.038;5.566;2023-03-01T00:25:09;19.03;;;9.47;;
68763;SDS011;55754;52.038;5.566;2023-03-01T00:27:35;19.77;;;9.10;;
68763;SDS011;55754;52.038;5.566;2023-03-01T00:30:00;19.45;;;9.63;;
68763;SDS011;55754;52.038;5.566;2023-03-01T00:32:26;20.17;;;9.33;;
68763;SDS011;55754;52.038;5.566;2023-03-01T00:34:52;18.33;;;8.97;;
68763;SDS011;55754;52.038;5.566;2023-03-01T00:37:20;18.15;;;9.60;;
68763;SDS011;55754;52.038;5.566;2023-03-01T00:39:46;17.02;;;9.07;;
68763;SDS011;55754;52.038;5.566;2023-03-01T00:42:12;16.52;;;9.00;;
68763;SDS011;55754;52.038;5.566;2023-03-01T00:44:38;18.27;;;8.80;;
68763;SDS011;55754;52.038;5.566;2023-03-01T00:47:04;17.83;;;8.83;;
68763;SDS011;55754;52.038;5.566;2023-03-01T00:49:29;16.70;;;8.50;;
68763;SDS011;55754;52.038;5.566;2023-03-01T00:51:55;17.33;;;9.03;;
68763;SDS011;55754;52.038;5.566;2023-03-01T00:54:20;17.40;;;8.32;;
68763;SDS011;55754;52.038;5.566;2023-03-01T00:56:46;16.67;;;8.43;;
68763;SDS011;55754;52.038;5.566;2023-03-01T00:59:11;16.53;;;8.50;;
68763;SDS011;55754;52.038;5.566;2023-03-01T01:01:37;17.75;;;8.82;;
68763;SDS011;55754;52.038;5.566;2023-03-01T01:04:07;15.73;;;8.47;;
68763;SDS011;55754;52.038;5.566;2023-03-01T01:06:41;17.00;;;8.60;;
68763;SDS011;55754;52.038;5.566;2023-03-01T01:09:09;21.73;;;8.63;;
68763;SDS011;55754;52.038;5.566;2023-03-01T01:11:47;19.83;;;8.87;;
68763;SDS011;55754;52.038;5.566;2023-03-01T01:14:14;18.55;;;8.25;;
68763;SDS011;55754;52.038;5.566;2023-03-01T01:16:40;16.45;;;8.68;;
68763;SDS011;55754;52.038;5.566;2023-03-01T01:19:06;16.03;;;8.53;;
68763;SDS011;55754;52.038;5.566;2023-03-01T01:21:32;16.33;;;8.15;;
68763;SDS011;55754;52.038;5.566;2023-03-01T01:23:57;15.17;;;8.17;;
68763;SDS011;55754;52.038;5.566;2023-03-01T01:26:24;17.13;;;8.20;;
68763;SDS011;55754;52.038;5.566;2023-03-01T01:28:52;18.85;;;8.35;;
68763;SDS011;55754;52.038;5.566;2023-03-01T01:31:18;16.77;;;8.40;;
68763;SDS011;55754;52.038;5.566;2023-03-01T01:33:45;15.10;;;7.85;;
68763;SDS011;55754;52.038;5.566;2023-03-01T01:36:11;16.20;;;8.40;;
68763;SDS011;55754;52.038;5.566;2023-03-01T01:38:37;14.10;;;7.70;;
68763;SDS011;55754;52.038;5.566;2023-03-01T01:41:03;17.43;;;8.40;;
68763;SDS011;55754;52.038;5.566;2023-03-01T01:43:35;15.07;;;7.82;;
68763;SDS011;55754;52.038;5.566;2023-03-01T01:46:04;15.93;;;8.02;;
68763;SDS011;55754;52.038;5.566;2023-03-01T01:48:40;15.68;;;7.53;;
68763;SDS011;55754;52.038;5.566;2023-03-01T01:51:13;15.38;;;7.97;;
68763;SDS011;55754;52.038;5.566;2023-03-01T01:53:43;17.23;;;8.60;;
68763;SDS011;55754;52.038;5.566;2023-03-01T01:56:14;15.90;;;8.20;;
68763;SDS011;55754;52.038;5.566;2023-03-01T01:58:42;18.17;;;7.80;;
68763;SDS011;55754;52.038;5.566;2023-03-01T02:01:08;17.55;;;7.78;;
68763;SDS011;55754;52.038;5.566;2023-03-01T02:03:34;16.63;;;7.93;;
68763;SDS011;55754;52.038;5.566;2023-03-01T02:06:10;16.70;;;7.70;;
68763;SDS011;55754;52.038;5.566;2023-03-01T02:08:40;14.27;;;7.45;;
68763;SDS011;55754;52.038;5.566;2023-03-01T02:11:07;15.32;;;7.68;;
68763;SDS011;55754;52.038;5.566;2023-03-01T02:13:35;16.90;;;8.10;;
68763;SDS011;55754;52.038;5.566;2023-03-01T02:16:04;20.37;;;7.70;;
68763;SDS011;55754;52.038;5.566;2023-03-01T02:18:33;15.50;;;7.63;;
68763;SDS011;55754;52.038;5.566;2023-03-01T02:21:05;14.13;;;7.15;;
68763;SDS011;55754;52.038;5.566;2023-03-01T02:23:52;16.55;;;7.80;;
68763;SDS011;55754;52.038;5.566;2023-03-01T02:26:21;14.75;;;7.40;;
68763;SDS011;55754;52.038;5.566;2023-03-01T02:28:53;17.80;;;8.40;;
68763;SDS011;55754;52.038;5.566;2023-03-01T02:31:19;14.90;;;7.77;;
68763;SDS011;55754;52.038;5.566;2023-03-01T02:34:04;16.73;;;7.35;;
68763;SDS011;55754;52.038;5.566;2023-03-01T02:36:33;14.88;;;8.05;;
68763;SDS011;55754;52.038;5.566;2023-03-01T02:39:02;14.55;;;7.80;;
68763;SDS011;55754;52.038;5.566;2023-03-01T02:41:31;17.03;;;7.90;;
68763;SDS011;55754;52.038;5.566;2023-03-01T02:44:03;14.70;;;8.20;;
68763;SDS011;55754;52.038;5.566;2023-03-01T02:46:29;23.80;;;7.68;;
68763;SDS011;55754;52.038;5.566;2023-03-01T02:48:56;17.60;;;7.77;;
68763;SDS011;55754;52.038;5.566;2023-03-01T02:54:25;15.75;;;8.10;;
68763;SDS011;55754;52.038;5.566;2023-03-01T02:56:58;17.08;;;7.90;;
68763;SDS011;55754;52.038;5.566;2023-03-01T02:59:25;16.80;;;8.60;;
68763;SDS011;55754;52.038;5.566;2023-03-01T03:01:53;18.15;;;8.13;;
68763;SDS011;55754;52.038;5.566;2023-03-01T03:04:19;16.73;;;7.90;;
68763;SDS011;55754;52.038;5.566;2023-03-01T03:06:49;15.88;;;7.70;;
68763;SDS011;55754;52.038;5.566;2023-03-01T03:09:16;13.90;;;7.53;;
68763;SDS011;55754;52.038;5.566;2023-03-01T03:11:42;16.77;;;7.53;;
68763;SDS011;55754;52.038;5.566;2023-03-01T03:14:09;14.55;;;7.95;;
68763;SDS011;55754;52.038;5.566;2023-03-01T03:16:47;15.87;;;7.80;;
68763;SDS011;55754;52.038;5.566;2023-03-01T03:19:17;16.55;;;7.45;;
68763;SDS011;55754;52.038;5.566;2023-03-01T03:21:43;14.60;;;7.60;;
68763;SDS011;55754;52.038;5.566;2023-03-01T03:24:09;15.13;;;7.80;;
68763;SDS011;55754;52.038;5.566;2023-03-01T03:26:34;14.70;;;8.07;;
68763;SDS011;55754;52.038;5.566;2023-03-01T03:29:00;15.10;;;8.00;;
68763;SDS011;55754;52.038;5.566;2023-03-01T03:31:26;16.05;;;7.93;;
68763;SDS011;55754;52.038;5.566;2023-03-01T03:33:52;18.00;;;8.02;;
68763;SDS011;55754;52.038;5.566;2023-03-01T03:36:19;14.77;;;7.47;;
68763;SDS011;55754;52.038;5.566;2023-03-01T03:38:46;16.65;;;8.00;;
68763;SDS011;55754;52.038;5.566;2023-03-01T03:41:12;17.97;;;8.40;;
68763;SDS011;55754;52.038;5.566;2023-03-01T03:43:38;15.02;;;7.75;;
68763;SDS011;55754;52.038;5.566;2023-03-01T03:46:06;15.15;;;7.97;;
68763;SDS011;55754;52.038;5.566;2023-03-01T03:48:36;18.75;;;7.80;;
68763;SDS011;55754;52.038;5.566;2023-03-01T03:51:03;14.93;;;7.67;;
68763;SDS011;55754;52.038;5.566;2023-03-01T03:53:47;15.68;;;7.70;;
68763;SDS011;55754;52.038;5.566;2023-03-01T03:56:13;16.02;;;8.25;;
68763;SDS011;55754;52.038;5.566;2023-03-01T03:58:39;14.77;;;8.33;;
68763;SDS011;55754;52.038;5.566;2023-03-01T04:01:04;15.88;;;7.78;;
68763;SDS011;55754;52.038;5.566;2023-03-01T04:03:30;16.17;;;8.70;;
68763;SDS011;55754;52.038;5.566;2023-03-01T04:05:58;14.60;;;7.63;;
68763;SDS011;55754;52.038;5.566;2023-03-01T04:08:24;13.93;;;7.40;;
68763;SDS011;55754;52.038;5.566;2023-03-01T04:10:51;16.98;;;8.05;;
68763;SDS011;55754;52.038;5.566;2023-03-01T04:13:22;16.10;;;7.72;;
68763;SDS011;55754;52.038;5.566;2023-03-01T04:15:48;16.83;;;7.67;;
68763;SDS011;55754;52.038;5.566;2023-03-01T04:18:15;15.30;;;7.72;;
68763;SDS011;55754;52.038;5.566;2023-03-01T04:20:42;16.63;;;7.88;;
68763;SDS011;55754;52.038;5.566;2023-03-01T04:23:11;17.20;;;7.75;;
68763;SDS011;55754;52.038;5.566;2023-03-01T04:25:50;16.60;;;7.70;;
68763;SDS011;55754;52.038;5.566;2023-03-01T04:28:25;14.83;;;7.30;;
68763;SDS011;55754;52.038;5.566;2023-03-01T04:30:56;14.63;;;7.60;;
68763;SDS011;55754;52.038;5.566;2023-03-01T04:33:23;15.15;;;8.05;;
68763;SDS011;55754;52.038;5.566;2023-03-01T04:35:50;14.63;;;7.72;;
68763;SDS011;55754;52.038;5.566;2023-03-01T04:38:16;14.47;;;7.70;;
68763;SDS011;55754;52.038;5.566;2023-03-01T04:40:43;13.15;;;7.22;;
68763;SDS011;55754;52.038;5.566;2023-03-01T04:43:09;15.70;;;8.02;;
68763;SDS011;55754;52.038;5.566;2023-03-01T04:45:35;15.50;;;7.70;;
68763;SDS011;55754;52.038;5.566;2023-03-01T04:48:01;19.33;;;7.28;;
68763;SDS011;55754;52.038;5.566;2023-03-01T04:50:28;15.95;;;7.53;;
68763;SDS011;55754;52.038;5.566;2023-03-01T04:52:54;15.30;;;7.30;;
68763;SDS011;55754;52.038;5.566;2023-03-01T04:55:23;14.18;;;7.53;;
68763;SDS011;55754;52.038;5.566;2023-03-01T04:57:50;14.60;;;7.53;;
68763;SDS011;55754;52.038;5.566;2023-03-01T05:00:16;19.30;;;7.75;;
68763;SDS011;55754;52.038;5.566;2023-03-01T05:07:58;16.27;;;7.28;;
68763;SDS011;55754;52.038;5.566;2023-03-01T05:10:26;14.15;;;7.32;;
68763;SDS011;55754;52.038;5.566;2023-03-01T05:12:56;15.20;;;7.47;;
68763;SDS011;55754;52.038;5.566;2023-03-01T05:15:23;14.88;;;7.50;;
68763;SDS011;55754;52.038;5.566;2023-03-01T05:17:50;16.53;;;7.80;;
68763;SDS011;55754;52.038;5.566;2023-03-01T05:20:17;16.52;;;7.22;;
68763;SDS011;55754;52.038;5.566;2023-03-01T05:22:49;14.57;;;7.32;;
68763;SDS011;55754;52.038;5.566;2023-03-01T05:25:15;15.77;;;7.72;;
68763;SDS011;55754;52.038;5.566;2023-03-01T05:27:41;16.75;;;8.25;;
68763;SDS011;55754;52.038;5.566;2023-03-01T05:30:07;14.17;;;7.27;;
68763;SDS011;55754;52.038;5.566;2023-03-01T05:32:40;14.77;;;7.70;;
68763;SDS011;55754;52.038;5.566;2023-03-01T05:35:13;15.80;;;7.20;;
68763;SDS011;55754;52.038;5.566;2023-03-01T05:37:44;18.30;;;7.40;;
68763;SDS011;55754;52.038;5.566;2023-03-01T05:40:13;15.52;;;7.32;;
68763;SDS011;55754;52.038;5.566;2023-03-01T05:42:50;18.98;;;9.75;;
68763;SDS011;55754;52.038;5.566;2023-03-01T05:45:20;18.90;;;10.02;;
68763;SDS011;55754;52.038;5.566;2023-03-01T05:47:47;20.52;;;10.18;;
68763;SDS011;55754;52.038;5.566;2023-03-01T05:52:43;14.88;;;8.23;;
68763;SDS011;55754;52.038;5.566;2023-03-01T05:55:10;19.52;;;8.00;;
68763;SDS011;55754;52.038;5.566;2023-03-01T05:57:36;15.33;;;8.23;;
68763;SDS011;55754;52.038;5.566;2023-03-01T06:00:02;19.45;;;9.32;;
68763;SDS011;55754;52.038;5.566;2023-03-01T06:02:28;19.67;;;10.20;;
68763;SDS011;55754;52.038;5.566;2023-03-01T06:04:54;15.90;;;8.27;;
68763;SDS011;55754;52.038;5.566;2023-03-01T06:07:20;22.05;;;9.50;;
68763;SDS011;55754;52.038;5.566;2023-03-01T06:09:46;17.98;;;10.02;;
68763;SDS011;55754;52.038;5.566;2023-03-01T06:12:11;22.40;;;10.07;;
68763;SDS011;55754;52.038;5.566;2023-03-01T06:14:37;18.23;;;9.67;;
68763;SDS011;55754;52.038;5.566;2023-03-01T06:17:02;16.90;;;9.10;;
68763;SDS011;55754;52.038;5.566;2023-03-01T06:19:28;15.80;;;8.20;;
68763;SDS011;55754;52.038;5.566;2023-03-01T06:21:54;15.33;;;8.07;;
68763;SDS011;55754;52.038;5.566;2023-03-01T06:24:19;15.13;;;7.50;;
68763;SDS011;55754;52.038;5.566;2023-03-01T06:26:45;17.70;;;8.07;;
68763;SDS011;55754;52.038;5.566;2023-03-01T06:29:10;15.07;;;7.75;;
68763;SDS011;55754;52.038;5.566;2023-03-01T06:31:36;14.27;;;7.10;;
68763;SDS011;55754;52.038;5.566;2023-03-01T06:34:02;13.60;;;7.07;;
68763;SDS011;55754;52.038;5.566;2023-03-01T06:36:27;13.68;;;7.32;;
68763;SDS011;55754;52.038;5.566;2023-03-01T06:38:53;17.07;;;7.80;;
68763;SDS011;55754;52.038;5.566;2023-03-01T06:41:18;16.90;;;7.70;;
68763;SDS011;55754;52.038;5.566;2023-03-01T06:43:44;16.55;;;7.75;;
68763;SDS011;55754;52.038;5.566;2023-03-01T06:46:09;17.57;;;7.80;;
68763;SDS011;55754;52.038;5.566;2023-03-01T06:48:35;16.20;;;8.00;;
68763;SDS011;55754;52.038;5.566;2023-03-01T06:51:00;18.02;;;7.95;;
68763;SDS011;55754;52.038;5.566;2023-03-01T06:53:27;20.00;;;7.97;;
68763;SDS011;55754;52.038;5.566;2023-03-01T06:55:54;16.35;;;7.78;;
68763;SDS011;55754;52.038;5.566;2023-03-01T06:58:20;20.30;;;8.70;;
68763;SDS011;55754;52.038;5.566;2023-03-01T07:00:46;18.63;;;8.00;;
68763;SDS011;55754;52.038;5.566;2023-03-01T07:03:11;17.77;;;7.93;;
68763;SDS011;55754;52.038;5.566;2023-03-01T07:05:37;17.42;;;7.93;;
68763;SDS011;55754;52.038;5.566;2023-03-01T07:08:02;15.73;;;8.00;;
68763;SDS011;55754;52.038;5.566;2023-03-01T07:10:28;19.52;;;8.57;;
68763;SDS011;55754;52.038;5.566;2023-03-01T07:12:54;18.48;;;8.60;;
68763;SDS011;55754;52.038;5.566;2023-03-01T07:15:23;19.60;;;7.97;;
68763;SDS011;55754;52.038;5.566;2023-03-01T07:17:50;17.90;;;7.63;;
68763;SDS011;55754;52.038;5.566;2023-03-01T07:20:16;16.98;;;8.13;;
68763;SDS011;55754;52.038;5.566;2023-03-01T07:22:43;19.35;;;8.43;;
68763;SDS011;55754;52.038;5.566;2023-03-01T07:25:09;20.40;;;9.33;;
68763;SDS011;55754;52.038;5.566;2023-03-01T07:27:35;21.10;;;9.80;;
68763;SDS011;55754;52.038;5.566;2023-03-01T07:30:01;32.70;;;12.80;;
68763;SDS011;55754;52.038;5.566;2023-03-01T07:32:27;31.43;;;12.13;;
68763;SDS011;55754;52.038;5.566;2023-03-01T07:34:53;36.03;;;13.13;;
68763;SDS011;55754;52.038;5.566;2023-03-01T07:37:18;31.00;;;12.50;;
68763;SDS011;55754;52.038;5.566;2023-03-01T07:39:44;26.93;;;11.47;;
68763;SDS011;55754;52.038;5.566;2023-03-01T07:42:09;29.95;;;10.90;;
68763;SDS011;55754;52.038;5.566;2023-03-01T07:44:35;30.33;;;11.10;;
68763;SDS011;55754;52.038;5.566;2023-03-01T07:47:00;28.27;;;10.37;;
68763;SDS011;55754;52.038;5.566;2023-03-01T07:49:27;31.45;;;11.15;;
68763;SDS011;55754;52.038;5.566;2023-03-01T07:52:02;30.30;;;12.80;;
68763;SDS011;55754;52.038;5.566;2023-03-01T07:54:28;30.52;;;14.38;;
68763;SDS011;55754;52.038;5.566;2023-03-01T07:56:53;24.30;;;10.50;;
68763;SDS011;55754;52.038;5.566;2023-03-01T07:59:19;22.85;;;10.38;;
68763;SDS011;55754;52.038;5.566;2023-03-01T08:01:45;17.48;;;9.00;;
68763;SDS011;55754;52.038;5.566;2023-03-01T08:04:10;16.47;;;8.40;;
68763;SDS011;55754;52.038;5.566;2023-03-01T08:06:36;21.58;;;9.10;;
68763;SDS011;55754;52.038;5.566;2023-03-01T08:09:08;20.02;;;10.15;;
68763;SDS011;55754;52.038;5.566;2023-03-01T08:11:36;23.85;;;10.32;;
68763;SDS011;55754;52.038;5.566;2023-03-01T08:14:02;22.30;;;11.18;;
68763;SDS011;55754;52.038;5.566;2023-03-01T08:16:28;19.67;;;10.20;;
68763;SDS011;55754;52.038;5.566;2023-03-01T08:18:54;18.00;;;8.90;;
68763;SDS011;55754;52.038;5.566;2023-03-01T08:21:21;16.65;;;8.73;;
68763;SDS011;55754;52.038;5.566;2023-03-01T08:23:47;18.50;;;8.73;;
68763;SDS011;55754;52.038;5.566;2023-03-01T08:26:17;15.75;;;8.02;;
68763;SDS011;55754;52.038;5.566;2023-03-01T08:28:44;19.30;;;9.32;;
68763;SDS011;55754;52.038;5.566;2023-03-01T08:31:23;23.80;;;10.48;;
68763;SDS011;55754;52.038;5.566;2023-03-01T08:33:53;15.93;;;8.15;;
68763;SDS011;55754;52.038;5.566;2023-03-01T08:36:25;18.80;;;8.70;;
68763;SDS011;55754;52.038;5.566;2023-03-01T08:38:52;18.27;;;8.25;;
68763;SDS011;55754;52.038;5.566;2023-03-01T08:41:18;17.67;;;7.90;;
68763;SDS011;55754;52.038;5.566;2023-03-01T08:43:44;14.02;;;6.97;;
68763;SDS011;55754;52.038;5.566;2023-03-01T08:46:10;14.33;;;7.27;;
68763;SDS011;55754;52.038;5.566;2023-03-01T08:48:36;14.05;;;7.03;;
68763;SDS011;55754;52.038;5.566;2023-03-01T08:51:09;13.87;;;6.33;;
68763;SDS011;55754;52.038;5.566;2023-03-01T08:53:37;13.35;;;7.20;;
68763;SDS011;55754;52.038;5.566;2023-03-01T08:56:06;12.20;;;6.30;;
68763;SDS011;55754;52.038;5.566;2023-03-01T08:58:32;13.70;;;6.78;;
68763;SDS011;55754;52.038;5.566;2023-03-01T09:00:58;13.60;;;6.97;;
68763;SDS011;55754;52.038;5.566;2023-03-01T09:03:24;14.27;;;7.07;;
68763;SDS011;55754;52.038;5.566;2023-03-01T09:05:50;13.47;;;6.77;;
68763;SDS011;55754;52.038;5.566;2023-03-01T09:08:17;14.55;;;7.13;;
68763;SDS011;55754;52.038;5.566;2023-03-01T09:10:43;14.88;;;6.88;;
68763;SDS011;55754;52.038;5.566;2023-03-01T09:13:09;11.00;;;5.97;;
68763;SDS011;55754;52.038;5.566;2023-03-01T09:15:38;12.43;;;5.60;;
68763;SDS011;55754;52.038;5.566;2023-03-01T09:18:03;11.95;;;5.80;;
68763;SDS011;55754;52.038;5.566;2023-03-01T09:20:29;12.50;;;6.28;;
68763;SDS011;55754;52.038;5.566;2023-03-01T09:22:56;14.25;;;5.55;;
68763;SDS011;55754;52.038;5.566;2023-03-01T09:25:21;12.65;;;5.78;;
68763;SDS011;55754;52.038;5.566;2023-03-01T09:27:47;9.13;;;4.07;;
68763;SDS011;55754;52.038;5.566;2023-03-01T09:30:15;7.93;;;3.77;;
68763;SDS011;55754;52.038;5.566;2023-03-01T09:32:41;8.60;;;3.83;;
68763;SDS011;55754;52.038;5.566;2023-03-01T09:35:07;9.13;;;4.35;;
68763;SDS011;55754;52.038;5.566;2023-03-01T09:37:34;12.10;;;4.13;;
68763;SDS011;55754;52.038;5.566;2023-03-01T09:40:00;9.03;;;4.20;;
68763;SDS011;55754;52.038;5.566;2023-03-01T09:42:28;8.82;;;4.20;;
68763;SDS011;55754;52.038;5.566;2023-03-01T09:47:36;8.98;;;4.40;;
68763;SDS011;55754;52.038;5.566;2023-03-01T09:50:05;8.60;;;3.73;;
68763;SDS011;55754;52.038;5.566;2023-03-01T09:52:44;9.40;;;4.10;;
68763;SDS011;55754;52.038;5.566;2023-03-01T09:55:15;10.63;;;4.40;;
68763;SDS011;55754;52.038;5.566;2023-03-01T09:57:49;9.70;;;4.88;;
68763;SDS011;55754;52.038;5.566;2023-03-01T10:03:17;9.70;;;4.43;;
68763;SDS011;55754;52.038;5.566;2023-03-01T10:05:55;7.97;;;3.15;;
68763;SDS011;55754;52.038;5.566;2023-03-01T10:11:27;7.43;;;3.58;;
68763;SDS011;55754;52.038;5.566;2023-03-01T10:14:26;7.38;;;3.58;;
68763;SDS011;55754;52.038;5.566;2023-03-01T10:17:06;10.60;;;3.45;;
68763;SDS011;55754;52.038;5.566;2023-03-01T10:19:43;10.18;;;3.67;;
68763;SDS011;55754;52.038;5.566;2023-03-01T10:22:13;8.10;;;3.70;;
68763;SDS011;55754;52.038;5.566;2023-03-01T10:24:57;8.63;;;3.15;;
68763;SDS011;55754;52.038;5.566;2023-03-01T10:27:25;7.73;;;3.73;;
68763;SDS011;55754;52.038;5.566;2023-03-01T10:33:01;7.45;;;3.13;;
68763;SDS011;55754;52.038;5.566;2023-03-01T10:35:31;8.48;;;3.45;;
68763;SDS011;55754;52.038;5.566;2023-03-01T10:38:02;7.35;;;3.03;;
68763;SDS011;55754;52.038;5.566;2023-03-01T10:40:31;9.52;;;3.95;;
68763;SDS011;55754;52.038;5.566;2023-03-01T10:42:58;7.93;;;3.30;;
68763;SDS011;55754;52.038;5.566;2023-03-01T10:45:34;8.57;;;3.90;;
68763;SDS011;55754;52.038;5.566;2023-03-01T10:50:49;10.65;;;3.70;;
68763;SDS011;55754;52.038;5.566;2023-03-01T10:53:30;7.95;;;3.30;;
68763;SDS011;55754;52.038;5.566;2023-03-01T10:58:24;9.23;;;3.80;;
68763;SDS011;55754;52.038;5.566;2023-03-01T11:00:52;7.88;;;3.67;;
68763;SDS011;55754;52.038;5.566;2023-03-01T11:03:30;7.85;;;3.60;;
68763;SDS011;55754;52.038;5.566;2023-03-01T11:08:30;8.30;;;3.30;;
68763;SDS011;55754;52.038;5.566;2023-03-01T11:13:51;9.63;;;3.58;;
68763;SDS011;55754;52.038;5.566;2023-03-01T11:18:59;10.95;;;4.30;;
68763;SDS011;55754;52.038;5.566;2023-03-01T11:21:30;9.53;;;3.87;;
68763;SDS011;55754;52.038;5.566;2023-03-01T11:23:59;7.90;;;3.67;;
68763;SDS011;55754;52.038;5.566;2023-03-01T11:26:28;8.95;;;4.05;;
68763;SDS011;55754;52.038;5.566;2023-03-01T11:28:56;10.05;;;4.45;;
68763;SDS011;55754;52.038;5.566;2023-03-01T11:31:27;9.15;;;3.97;;
68763;SDS011;55754;52.038;5.566;2023-03-01T11:34:05;8.30;;;4.07;;
68763;SDS011;55754;52.038;5.566;2023-03-01T11:36:41;8.73;;;3.50;;
68763;SDS011;55754;52.038;5.566;2023-03-01T11:41:37;11.10;;;4.43;;
68763;SDS011;55754;52.038;5.566;2023-03-01T11:44:11;8.90;;;4.22;;
68763;SDS011;55754;52.038;5.566;2023-03-01T11:52:20;10.10;;;4.68;;
68763;SDS011;55754;52.038;5.566;2023-03-01T11:55:21;9.60;;;4.17;;
68763;SDS011;55754;52.038;5.566;2023-03-01T11:58:59;11.32;;;4.07;;
68763;SDS011;55754;52.038;5.566;2023-03-01T12:01:16;8.35;;;4.00;;
68763;SDS011;55754;52.038;5.566;2023-03-01T12:04:26;8.65;;;4.05;;
68763;SDS011;55754;52.038;5.566;2023-03-01T12:10:28;9.60;;;4.73;;
68763;SDS011;55754;52.038;5.566;2023-03-01T12:29:50;10.43;;;4.20;;
68763;SDS011;55754;52.038;5.566;2023-03-01T12:37:56;7.60;;;3.67;;
68763;SDS011;55754;52.038;5.566;2023-03-01T12:43:38;9.43;;;3.72;;
68763;SDS011;55754;52.038;5.566;2023-03-01T12:46:28;8.23;;;4.07;;
68763;SDS011;55754;52.038;5.566;2023-03-01T12:49:12;10.95;;;4.55;;
68763;SDS011;55754;52.038;5.566;2023-03-01T12:51:54;8.47;;;4.37;;
68763;SDS011;55754;52.038;5.566;2023-03-01T12:54:28;10.85;;;4.57;;
68763;SDS011;55754;52.038;5.566;2023-03-01T12:57:39;9.77;;;4.50;;
68763;SDS011;55754;52.038;5.566;2023-03-01T12:59:55;12.75;;;4.90;;
68763;SDS011;55754;52.038;5.566;2023-03-01T13:02:40;11.35;;;5.85;;
68763;SDS011;55754;52.038;5.566;2023-03-01T13:05:24;13.77;;;6.10;;
68763;SDS011;55754;52.038;5.566;2023-03-01T13:10:38;14.38;;;6.70;;
68763;SDS011;55754;52.038;5.566;2023-03-01T13:13:18;10.02;;;5.03;;
68763;SDS011;55754;52.038;5.566;2023-03-01T13:15:48;9.98;;;4.10;;
68763;SDS011;55754;52.038;5.566;2023-03-01T13:23:09;8.07;;;4.00;;
68763;SDS011;55754;52.038;5.566;2023-03-01T13:28:46;8.20;;;4.00;;
68763;SDS011;55754;52.038;5.566;2023-03-01T13:38:57;13.48;;;5.60;;
68763;SDS011;55754;52.038;5.566;2023-03-01T13:44:11;8.90;;;4.23;;
68763;SDS011;55754;52.038;5.566;2023-03-01T13:46:58;10.90;;;4.20;;
68763;SDS011;55754;52.038;5.566;2023-03-01T13:55:16;8.13;;;3.47;;
68763;SDS011;55754;52.038;5.566;2023-03-01T13:57:45;8.47;;;4.10;;
68763;SDS011;55754;52.038;5.566;2023-03-01T14:03:00;8.43;;;3.72;;
68763;SDS011;55754;52.038;5.566;2023-03-01T14:05:27;10.13;;;3.70;;
68763;SDS011;55754;52.038;5.566;2023-03-01T14:07:53;8.57;;;3.83;;
68763;SDS011;55754;52.038;5.566;2023-03-01T14:10:19;8.00;;;3.70;;
68763;SDS011;55754;52.038;5.566;2023-03-01T14:20:54;9.25;;;4.10;;
68763;SDS011;55754;52.038;5.566;2023-03-01T14:23:21;8.37;;;3.60;;
68763;SDS011;55754;52.038;5.566;2023-03-01T14:28:33;8.90;;;4.13;;
68763;SDS011;55754;52.038;5.566;2023-03-01T14:31:05;8.20;;;3.93;;
68763;SDS011;55754;52.038;5.566;2023-03-01T14:34:18;9.40;;;3.95;;
68763;SDS011;55754;52.038;5.566;2023-03-01T14:36:49;8.57;;;3.97;;
68763;SDS011;55754;52.038;5.566;2023-03-01T14:39:24;7.15;;;3.55;;
68763;SDS011;55754;52.038;5.566;2023-03-01T14:41:51;7.47;;;3.47;;
68763;SDS011;55754;52.038;5.566;2023-03-01T14:44:21;7.97;;;3.70;;
68763;SDS011;55754;52.038;5.566;2023-03-01T14:46:51;9.05;;;3.95;;
68763;SDS011;55754;52.038;5.566;2023-03-01T14:49:21;7.88;;;3.47;;
68763;SDS011;55754;52.038;5.566;2023-03-01T14:52:17;8.30;;;3.40;;
68763;SDS011;55754;52.038;5.566;2023-03-01T14:54:44;8.10;;;3.70;;
68763;SDS011;55754;52.038;5.566;2023-03-01T14:57:20;7.55;;;3.20;;
68763;SDS011;55754;52.038;5.566;2023-03-01T14:59:47;7.40;;;3.65;;
68763;SDS011;55754;52.038;5.566;2023-03-01T15:02:16;8.20;;;3.40;;
68763;SDS011;55754;52.038;5.566;2023-03-01T15:04:48;10.68;;;3.80;;
68763;SDS011;55754;52.038;5.566;2023-03-01T15:07:16;8.87;;;3.50;;
68763;SDS011;55754;52.038;5.566;2023-03-01T15:09:43;8.93;;;3.55;;
68763;SDS011;55754;52.038;5.566;2023-03-01T15:14:53;8.25;;;3.55;;
68763;SDS011;55754;52.038;5.566;2023-03-01T15:17:21;8.27;;;3.63;;
68763;SDS011;55754;52.038;5.566;2023-03-01T15:19:55;8.17;;;3.60;;
68763;SDS011;55754;52.038;5.566;2023-03-01T15:22:21;13.80;;;3.83;;
68763;SDS011;55754;52.038;5.566;2023-03-01T15:24:49;7.38;;;3.75;;
68763;SDS011;55754;52.038;5.566;2023-03-01T15:27:16;9.40;;;3.58;;
68763;SDS011;55754;52.038;5.566;2023-03-01T15:29:51;8.77;;;3.60;;
68763;SDS011;55754;52.038;5.566;2023-03-01T15:32:26;7.00;;;3.40;;
68763;SDS011;55754;52.038;5.566;2023-03-01T15:34:52;8.15;;;3.60;;
68763;SDS011;55754;52.038;5.566;2023-03-01T15:40:28;7.32;;;3.22;;
68763;SDS011;55754;52.038;5.566;2023-03-01T15:43:00;10.00;;;3.30;;
68763;SDS011;55754;52.038;5.566;2023-03-01T15:45:28;7.28;;;3.38;;
68763;SDS011;55754;52.038;5.566;2023-03-01T15:47:58;8.93;;;3.10;;
68763;SDS011;55754;52.038;5.566;2023-03-01T15:50:31;8.05;;;3.67;;
68763;SDS011;55754;52.038;5.566;2023-03-01T15:53:05;7.35;;;3.30;;
68763;SDS011;55754;52.038;5.566;2023-03-01T15:55:36;9.83;;;3.20;;
68763;SDS011;55754;52.038;5.566;2023-03-01T15:58:05;7.93;;;3.42;;
68763;SDS011;55754;52.038;5.566;2023-03-01T16:00:43;10.02;;;3.78;;
68763;SDS011;55754;52.038;5.566;2023-03-01T16:03:10;6.80;;;3.20;;
68763;SDS011;55754;52.038;5.566;2023-03-01T16:05:36;7.75;;;3.25;;
68763;SDS011;55754;52.038;5.566;2023-03-01T16:08:03;8.23;;;3.55;;
68763;SDS011;55754;52.038;5.566;2023-03-01T16:10:30;7.72;;;3.60;;
68763;SDS011;55754;52.038;5.566;2023-03-01T16:12:57;11.43;;;3.55;;
68763;SDS011;55754;52.038;5.566;2023-03-01T16:15:24;7.93;;;3.33;;
68763;SDS011;55754;52.038;5.566;2023-03-01T16:17:52;10.65;;;3.80;;
68763;SDS011;55754;52.038;5.566;2023-03-01T16:20:18;9.63;;;3.27;;
68763;SDS011;55754;52.038;5.566;2023-03-01T16:22:44;8.18;;;3.70;;
68763;SDS011;55754;52.038;5.566;2023-03-01T16:25:11;10.23;;;4.35;;
68763;SDS011;55754;52.038;5.566;2023-03-01T16:27:43;8.02;;;4.07;;
68763;SDS011;55754;52.038;5.566;2023-03-01T16:30:11;8.35;;;3.80;;
68763;SDS011;55754;52.038;5.566;2023-03-01T16:32:41;10.70;;;4.23;;
68763;SDS011;55754;52.038;5.566;2023-03-01T16:35:08;9.68;;;4.68;;
68763;SDS011;55754;52.038;5.566;2023-03-01T16:37:36;9.82;;;5.05;;
68763;SDS011;55754;52.038;5.566;2023-03-01T16:40:03;10.45;;;4.60;;
68763;SDS011;55754;52.038;5.566;2023-03-01T16:42:35;9.18;;;4.35;;
68763;SDS011;55754;52.038;5.566;2023-03-01T16:45:02;11.07;;;4.57;;
68763;SDS011;55754;52.038;5.566;2023-03-01T16:47:28;10.05;;;4.82;;
68763;SDS011;55754;52.038;5.566;2023-03-01T16:49:54;13.75;;;4.25;;